Vero Beach Municipal Airport
KVRB : now visible

Airfield :











YOU CAN JOIN US ON...

 
LOGIN :

Register | Disclaimer

   EN    FR    IT 

 









Legend :    VFR   Marginal VFR   IFR   Intensive IFR   Very Intensive IFR
Visi :
Ceiling :
>= 8 km
>= 3000ft
5 to 8 km
1000 to 3000 ft
1500m to 5 km
500 to 1000 ft
800 to 1500m
200 to 500 ft
< 800m
< 200 ft
Symbols :   Thunderstorms  Fog  Heavy snow  Heavy precipitations  Wind > 20 kt






- Airport Elevation : 24 ft
- IATA code : VRB


KVRB - Vero Beach Municipal

CURRENT METAR :
  • 190753Z AUTO 00000KT 10SM CLR 25/24 A3000 RMK AO2 SLP157 T02500239

EXPIRED METARs :
  • 190653Z AUTO 00000KT 10SM CLR 26/24 A3001 RMK AO2 SLP162 T02560244
  • 190553Z AUTO 00000KT 10SM FEW038 26/24 A3002 RMK AO2 LTG DSNT SE SLP166 T02560244 10283 20256 58007

TAF KVRB
Valid from the 19 at 06:00 until the 20 at 06:00 UTC


190536Z 1906/2006 VRB03KT P6SM FEW010 SCT030 BKN150
FM191400 VRB05KT P6SM SCT030 SCT080
FM191700 08006KT P6SM SCT030 SCT120
FM191900 11008KT P6SM VCTS SCT025CB BKN050
TEMPO 1921/1924 3SM TSRA BKN025CB BKN040
FM200100 VRB04KT P6SM SCT060 BKN100 BKN200
KZMA FIR / North America



MET'MAP, your aeronautical weather chart ! - Copyright ORBIFLY December 2007 - Disclaimer

ORBIFLY MET'MAP TEAM :

Programming & Development : Alexandra Zaïnal
Concept & original design : Baudouin d'Aumeries
Assistance for programming : Marc-Olivier Méhu
Technical & hardware support : Manuel Goepfert

Contact : metmap@orbifly.com




SOURCES & CREDITS :

   NOAA       Earth
Advisory